createdAt,value
2018-04-17T00:00:10.165Z,9.33
2018-04-17T00:02:37.680Z,12.53
2018-04-17T00:05:05.204Z,8.13
2018-04-17T00:07:32.724Z,11.33
2018-04-17T00:10:01.856Z,9.63
2018-04-17T00:12:29.368Z,9.37
2018-04-17T00:14:57.690Z,10.27
2018-04-17T00:17:25.626Z,11.90
2018-04-17T00:19:53.924Z,11.83
2018-04-17T00:22:21.433Z,10.33
2018-04-17T00:24:48.963Z,11.43
2018-04-17T00:27:16.503Z,12.13
2018-04-17T00:29:44.752Z,10.17
2018-04-17T00:32:13.052Z,17.13
2018-04-17T00:34:40.597Z,10.13
2018-04-17T00:37:09.254Z,11.43
2018-04-17T00:39:36.762Z,11.37
2018-04-17T00:42:04.289Z,10.43
2018-04-17T00:44:33.321Z,13.83
2018-04-17T00:47:01.239Z,12.33
2018-04-17T00:49:28.768Z,8.83
2018-04-17T00:51:56.293Z,13.47
2018-04-17T00:54:24.640Z,10.37
2018-04-17T00:56:52.179Z,13.20
2018-04-17T00:59:20.186Z,9.87
2018-04-17T01:01:49.035Z,10.33
2018-04-17T01:04:16.553Z,12.23
2018-04-17T01:06:44.081Z,12.27
2018-04-17T01:09:11.608Z,12.40
2018-04-17T01:11:39.198Z,11.83
2018-04-17T01:14:06.776Z,9.87
2018-04-17T01:16:35.067Z,12.17
2018-04-17T01:19:03.984Z,13.33
2018-04-17T01:21:31.506Z,11.47
2018-04-17T01:23:59.840Z,11.47
2018-04-17T01:26:27.364Z,12.43
2018-04-17T01:28:54.890Z,13.17
2018-04-17T01:31:22.434Z,13.50
2018-04-17T01:33:50.697Z,13.77
2018-04-17T01:36:18.801Z,12.83
2018-04-17T01:38:46.302Z,12.23
2018-04-17T01:41:13.831Z,13.00
2018-04-17T01:43:46.213Z,15.87
2018-04-17T01:46:15.053Z,14.17
2018-04-17T01:48:42.684Z,12.53
2018-04-17T01:51:10.260Z,11.20
2018-04-17T01:53:37.808Z,12.90
2018-04-17T01:56:06.159Z,14.77
2018-04-17T01:58:34.447Z,15.67
2018-04-17T02:01:01.975Z,14.27
2018-04-17T02:03:29.516Z,15.50
2018-04-17T02:05:57.044Z,15.77
2018-04-17T02:08:28.563Z,13.47
2018-04-17T02:10:56.892Z,10.93
2018-04-17T02:13:24.551Z,13.97
2018-04-17T02:15:52.068Z,13.47
2018-04-17T02:18:21.368Z,13.07
2018-04-17T02:20:49.644Z,14.93
2018-04-17T02:23:17.922Z,19.87
2018-04-17T02:25:46.807Z,20.17
2018-04-17T02:28:15.090Z,21.97
2018-04-17T02:30:43.930Z,18.17
2018-04-17T02:33:11.440Z,23.80
2018-04-17T02:35:39.760Z,21.67
2018-04-17T02:38:07.301Z,21.33
2018-04-17T02:40:34.854Z,25.90
2018-04-17T02:43:02.388Z,24.00
2018-04-17T02:45:30.686Z,25.57
2018-04-17T02:47:58.216Z,22.83
2018-04-17T02:50:25.744Z,25.17
2018-04-17T02:52:53.344Z,23.73
2018-04-17T02:55:21.640Z,24.87
2018-04-17T02:57:49.984Z,23.57
2018-04-17T03:00:17.551Z,23.77
2018-04-17T03:02:45.134Z,28.50
2018-04-17T03:05:13.426Z,24.43
2018-04-17T03:07:41.311Z,24.00
2018-04-17T03:10:08.824Z,27.33
2018-04-17T03:12:37.122Z,23.90
2018-04-17T03:15:04.669Z,21.00
2018-04-17T03:17:32.961Z,23.17
2018-04-17T03:20:00.496Z,22.23
2018-04-17T03:22:28.839Z,23.13
2018-04-17T03:24:56.406Z,26.63
2018-04-17T03:27:23.960Z,23.37
2018-04-17T03:29:51.700Z,22.27
2018-04-17T03:32:19.212Z,23.97
2018-04-17T03:34:46.988Z,23.57
2018-04-17T03:37:15.298Z,24.37
2018-04-17T03:39:42.823Z,21.87
2018-04-17T03:42:11.126Z,22.77
2018-04-17T03:44:38.645Z,21.20
2018-04-17T03:47:06.618Z,21.50
2018-04-17T03:49:34.148Z,23.17
2018-04-17T03:52:02.453Z,27.03
2018-04-17T03:54:29.967Z,25.90
2018-04-17T03:56:57.527Z,23.57
2018-04-17T03:59:25.555Z,20.83
2018-04-17T04:01:53.122Z,24.43
2018-04-17T04:04:25.430Z,26.43
2018-04-17T04:06:52.956Z,24.37
2018-04-17T04:09:21.250Z,23.83
2018-04-17T04:11:48.768Z,23.17
2018-04-17T04:14:16.329Z,28.43
2018-04-17T04:16:55.794Z,26.83
2018-04-17T04:19:36.386Z,24.17
2018-04-17T04:22:15.801Z,28.83
2018-04-17T04:27:47.827Z,28.03
2018-04-17T04:30:15.383Z,25.73
2018-04-17T04:32:42.900Z,29.13
2018-04-17T04:35:11.203Z,25.97
2018-04-17T04:37:38.727Z,27.63
2018-04-17T04:40:07.189Z,25.87
2018-04-17T04:42:34.721Z,27.43
2018-04-17T04:45:02.953Z,27.37
2018-04-17T04:47:31.240Z,28.47
2018-04-17T04:49:59.601Z,29.83
2018-04-17T04:52:28.494Z,31.93
2018-04-17T04:54:56.778Z,27.80
2018-04-17T04:57:25.576Z,30.20
2018-04-17T04:59:53.402Z,30.03
2018-04-17T05:02:20.963Z,29.20
2018-04-17T05:04:48.532Z,33.87
2018-04-17T05:07:16.033Z,28.33
2018-04-17T05:09:43.555Z,28.33
2018-04-17T05:12:11.844Z,29.87
2018-04-17T05:14:40.280Z,29.57
2018-04-17T05:17:07.801Z,28.03
2018-04-17T05:19:36.063Z,27.57
2018-04-17T05:22:04.349Z,26.77
2018-04-17T05:24:32.645Z,27.27
2018-04-17T05:27:00.241Z,27.77
2018-04-17T05:29:27.793Z,29.33
2018-04-17T05:31:55.354Z,30.23
2018-04-17T05:34:22.881Z,27.53
2018-04-17T05:36:50.507Z,28.87
2018-04-17T05:39:22.424Z,27.07
2018-04-17T05:41:53.592Z,24.73
2018-04-17T05:44:21.131Z,26.57
2018-04-17T05:46:48.716Z,29.90
2018-04-17T05:49:16.261Z,27.57
2018-04-17T05:51:43.888Z,27.53
2018-04-17T05:54:11.416Z,26.87
2018-04-17T05:56:39.734Z,27.57
2018-04-17T05:59:07.320Z,28.93
2018-04-17T06:01:35.590Z,27.87
2018-04-17T06:04:03.141Z,23.63
2018-04-17T06:06:30.666Z,29.00
2018-04-17T06:08:59.032Z,23.90
2018-04-17T06:11:27.344Z,23.03
2018-04-17T06:13:55.805Z,23.43
2018-04-17T06:16:24.102Z,25.80
2018-04-17T06:18:51.648Z,21.47
2018-04-17T06:21:19.636Z,24.00
2018-04-17T06:23:47.182Z,24.93
2018-04-17T06:26:14.702Z,22.57
2018-04-17T06:28:43.036Z,21.53
2018-04-17T06:31:10.548Z,21.60
2018-04-17T06:33:38.872Z,20.30
2018-04-17T06:36:06.394Z,21.00
2018-04-17T06:38:34.684Z,19.70
2018-04-17T06:41:02.982Z,18.20
2018-04-17T06:43:30.516Z,17.30
2018-04-17T06:46:02.921Z,16.93
2018-04-17T06:48:30.783Z,20.43
2018-04-17T06:50:58.756Z,16.40
2018-04-17T06:53:26.296Z,22.03
2018-04-17T06:55:53.877Z,19.67
2018-04-17T06:58:21.483Z,17.13
2018-04-17T07:00:49.199Z,18.65
2018-04-17T07:03:16.740Z,15.73
2018-04-17T07:05:44.278Z,14.65
2018-04-17T07:08:12.596Z,20.30
2018-04-17T07:10:40.138Z,19.63
2018-04-17T07:13:07.723Z,18.40
2018-04-17T07:15:35.260Z,14.45
2018-04-17T07:18:02.805Z,17.58
2018-04-17T07:20:31.117Z,18.02
2018-04-17T07:22:58.643Z,13.95
2018-04-17T07:25:26.953Z,15.43
2018-04-17T07:27:54.596Z,19.73
2018-04-17T07:30:22.171Z,19.17
2018-04-17T07:42:35.351Z,14.18
2018-04-17T07:45:02.901Z,12.25
2018-04-17T07:47:30.749Z,13.40
2018-04-17T07:49:58.258Z,12.70
2018-04-17T07:52:25.814Z,14.07
2018-04-17T07:54:53.786Z,12.07
2018-04-17T08:10:21.353Z,13.05
2018-04-17T08:12:49.515Z,13.70
2018-04-17T08:15:17.040Z,14.23
2018-04-17T08:17:45.344Z,9.65
2018-04-17T08:20:12.877Z,12.93
2018-04-17T08:22:41.092Z,10.20
2018-04-17T08:25:08.630Z,10.98
2018-04-17T08:27:36.164Z,11.73
2018-04-17T08:30:09.507Z,11.30
2018-04-17T08:32:37.297Z,13.50
2018-04-17T08:35:04.831Z,8.93
2018-04-17T08:37:32.356Z,10.77
2018-04-17T08:39:59.880Z,11.98
2018-04-17T08:42:27.417Z,13.27
2018-04-17T08:44:54.948Z,11.20
2018-04-17T08:47:23.196Z,8.82
2018-04-17T08:49:52.373Z,10.70
2018-04-17T08:52:20.460Z,11.38
2018-04-17T08:54:48.771Z,12.63
2018-04-17T08:57:16.309Z,9.95
2018-04-17T08:59:44.595Z,12.75
2018-04-17T09:02:12.129Z,10.73
2018-04-17T09:04:40.523Z,10.88
2018-04-17T09:07:08.827Z,10.77
2018-04-17T09:09:36.365Z,12.18
2018-04-17T09:12:04.684Z,10.32
2018-04-17T09:14:32.193Z,9.48
2018-04-17T09:17:00.497Z,10.52
2018-04-17T09:19:28.018Z,10.25
2018-04-17T09:21:55.533Z,10.30
2018-04-17T09:24:23.089Z,11.00
2018-04-17T09:26:50.619Z,14.05
2018-04-17T09:29:18.159Z,9.80
2018-04-17T09:31:46.432Z,9.77
2018-04-17T09:34:13.952Z,12.63
2018-04-17T09:36:41.494Z,8.40
2018-04-17T09:39:09.033Z,10.00
2018-04-17T09:41:36.594Z,9.15
2018-04-17T09:44:04.908Z,8.75
2018-04-17T09:46:32.436Z,9.10
2018-04-17T09:48:59.957Z,10.38
2018-04-17T09:51:28.080Z,11.02
2018-04-17T09:53:55.597Z,11.60
2018-04-17T09:56:23.148Z,12.52
2018-04-17T09:58:50.685Z,10.35
2018-04-17T10:01:21.654Z,10.35
2018-04-17T10:03:49.159Z,9.60
2018-04-17T10:06:16.815Z,12.18
2018-04-17T10:08:44.339Z,12.70
2018-04-17T10:11:12.641Z,10.40
2018-04-17T10:13:40.233Z,9.80
2018-04-17T10:16:08.563Z,11.10
2018-04-17T10:18:36.850Z,9.18
2018-04-17T10:21:05.870Z,11.48
2018-04-17T10:23:33.419Z,10.40
2018-04-17T10:26:00.935Z,9.82
2018-04-17T10:28:28.462Z,10.77
2018-04-17T10:30:55.992Z,9.50
2018-04-17T10:33:23.527Z,9.27
2018-04-17T10:35:51.817Z,9.65
2018-04-17T10:38:20.147Z,8.38
2018-04-17T10:40:47.646Z,8.40
2018-04-17T10:43:15.942Z,9.75
2018-04-17T10:45:43.487Z,8.27
2018-04-17T10:48:11.773Z,9.25
2018-04-17T10:50:40.083Z,9.73
2018-04-17T10:53:08.404Z,9.00
2018-04-17T10:55:35.938Z,9.68
2018-04-17T10:58:03.786Z,7.65
2018-04-17T11:00:31.295Z,9.63
2018-04-17T11:02:59.596Z,11.43
2018-04-17T11:05:27.179Z,9.32
2018-04-17T11:07:54.726Z,9.57
2018-04-17T11:10:22.276Z,7.43
2018-04-17T11:12:49.801Z,9.43
2018-04-17T11:15:17.337Z,9.00
2018-04-17T11:17:44.873Z,9.10
2018-04-17T11:20:12.389Z,7.47
2018-04-17T11:22:40.691Z,8.40
2018-04-17T11:25:08.200Z,9.57
2018-04-17T11:27:35.722Z,9.02
2018-04-17T11:30:03.252Z,8.32
2018-04-17T11:32:30.800Z,8.43
2018-04-17T11:47:58.370Z,10.35
2018-04-17T11:50:27.564Z,9.38
2018-04-17T11:52:56.554Z,9.18
2018-04-17T11:55:28.979Z,8.73
2018-04-17T11:57:56.491Z,9.52
2018-04-17T12:00:24.856Z,10.05
2018-04-17T12:02:52.404Z,10.77
2018-04-17T12:05:19.940Z,11.02
2018-04-17T12:07:47.457Z,10.02
2018-04-17T12:10:15.017Z,9.45
2018-04-17T12:12:43.263Z,10.63
2018-04-17T12:15:10.806Z,8.27
2018-04-17T12:17:38.346Z,10.43
2018-04-17T12:20:05.879Z,11.52
2018-04-17T12:22:33.415Z,7.47
2018-04-17T12:25:01.911Z,9.77
2018-04-17T12:27:29.461Z,11.48
2018-04-17T12:29:57.730Z,9.10
2018-04-17T12:32:26.047Z,9.23
2018-04-17T12:34:53.585Z,10.38
2018-04-17T12:37:21.120Z,13.48
2018-04-17T12:39:48.644Z,12.35
2018-04-17T12:42:16.201Z,8.32
2018-04-17T12:44:43.739Z,9.43
2018-04-17T12:47:11.257Z,10.63
2018-04-17T12:49:38.803Z,10.65
2018-04-17T12:52:06.321Z,9.38
2018-04-17T12:54:34.907Z,8.35
2018-04-17T12:57:02.435Z,11.50
2018-04-17T12:59:30.733Z,9.93
2018-04-17T13:01:58.256Z,10.02
2018-04-17T13:04:25.796Z,10.70
2018-04-17T13:06:53.316Z,10.73
2018-04-17T13:09:21.428Z,11.12
2018-04-17T13:11:48.984Z,9.70
2018-04-17T13:14:17.146Z,11.27
2018-04-17T13:16:44.731Z,7.68
2018-04-17T13:19:12.256Z,9.65
2018-04-17T13:21:39.773Z,8.98
2018-04-17T13:24:08.095Z,8.35
2018-04-17T13:26:36.604Z,9.80
2018-04-17T13:29:04.111Z,9.48
2018-04-17T13:31:31.636Z,9.20
2018-04-17T13:34:00.561Z,9.00
2018-04-17T13:36:28.155Z,10.25
2018-04-17T13:38:55.659Z,9.60
2018-04-17T13:41:23.950Z,10.75
2018-04-17T13:43:51.476Z,9.30
2018-04-17T13:46:19.032Z,9.43
2018-04-17T13:48:46.580Z,8.98
2018-04-17T13:51:14.121Z,10.07
2018-04-17T13:53:41.643Z,8.88
2018-04-17T13:56:09.931Z,7.90
2018-04-17T13:58:37.474Z,9.43
2018-04-17T14:01:05.761Z,10.20
2018-04-17T14:03:34.064Z,6.50
2018-04-17T14:06:01.614Z,7.93
2018-04-17T14:08:29.915Z,7.37
2018-04-17T14:10:57.427Z,10.65
2018-04-17T14:13:25.756Z,10.50
2018-04-17T14:15:53.300Z,7.40
2018-04-17T14:18:20.953Z,12.73
2018-04-17T14:20:48.509Z,8.32
2018-04-17T14:23:16.153Z,8.73
2018-04-17T14:25:44.440Z,8.27
2018-04-17T14:28:11.965Z,7.85
2018-04-17T14:30:39.490Z,7.35
2018-04-17T14:33:07.020Z,7.05
2018-04-17T14:35:34.543Z,8.30
2018-04-17T14:38:02.556Z,9.25
2018-04-17T14:40:30.423Z,8.95
2018-04-17T14:42:58.004Z,8.10
2018-04-17T14:45:25.524Z,7.70
2018-04-17T14:47:53.916Z,8.38
2018-04-17T14:50:21.533Z,9.60
2018-04-17T14:52:49.054Z,9.30
2018-04-17T14:55:16.616Z,9.38
2018-04-17T14:57:44.204Z,8.60
2018-04-17T15:00:11.780Z,8.48
2018-04-17T15:02:39.332Z,9.95
2018-04-17T15:05:07.675Z,8.60
2018-04-17T15:07:35.206Z,8.00
2018-04-17T15:10:03.491Z,11.43
2018-04-17T15:12:31.028Z,7.87
2018-04-17T15:14:59.328Z,9.73
2018-04-17T15:17:27.632Z,7.53
2018-04-17T15:19:55.165Z,8.05
2018-04-17T15:22:22.899Z,6.30
2018-04-17T15:24:51.203Z,9.07
2018-04-17T15:27:19.491Z,6.93
2018-04-17T15:29:46.999Z,8.88
2018-04-17T15:32:14.512Z,6.75
2018-04-17T15:34:42.067Z,9.23
2018-04-17T15:37:10.047Z,11.73
2018-04-17T15:39:43.667Z,10.52
2018-04-17T15:42:11.320Z,14.18
2018-04-17T15:44:39.557Z,9.55
2018-04-17T15:47:07.848Z,8.85
2018-04-17T15:49:35.430Z,8.00
2018-04-17T15:52:02.943Z,9.23
2018-04-17T15:54:30.485Z,8.95
2018-04-17T15:56:58.424Z,9.70
2018-04-17T15:59:25.944Z,9.40
2018-04-17T16:01:54.300Z,9.77
2018-04-17T16:04:21.896Z,10.80
2018-04-17T16:06:49.508Z,13.38
2018-04-17T16:09:17.068Z,11.05
2018-04-17T16:11:44.619Z,9.90
2018-04-17T16:14:12.588Z,9.93
2018-04-17T16:16:40.851Z,9.30
2018-04-17T16:19:08.446Z,8.55
2018-04-17T16:21:36.003Z,10.82
2018-04-17T16:24:03.601Z,10.13
2018-04-17T16:26:32.431Z,9.23
2018-04-17T16:29:00.872Z,10.32
2018-04-17T16:31:29.195Z,10.95
2018-04-17T16:33:56.720Z,10.15
2018-04-17T16:36:24.240Z,11.80
2018-04-17T16:38:51.780Z,8.10
2018-04-17T16:41:19.305Z,10.65
2018-04-17T16:43:47.384Z,12.13
2018-04-17T16:46:14.962Z,9.00
2018-04-17T16:48:42.532Z,11.27
2018-04-17T16:51:10.074Z,10.15
2018-04-17T16:53:37.629Z,9.57
2018-04-17T16:56:05.159Z,10.32
2018-04-17T16:58:33.477Z,8.52
2018-04-17T17:01:01.025Z,9.93
2018-04-17T17:03:28.664Z,8.98
2018-04-17T17:05:56.251Z,7.20
2018-04-17T17:08:23.773Z,6.37
2018-04-17T17:10:52.088Z,9.02
2018-04-17T17:13:19.634Z,7.18
2018-04-17T17:15:47.200Z,7.37
2018-04-17T17:18:14.733Z,8.07
2018-04-17T17:20:43.061Z,9.57
2018-04-17T17:23:10.614Z,8.15
2018-04-17T17:25:38.319Z,8.77
2018-04-17T17:28:07.575Z,9.70
2018-04-17T17:30:35.100Z,10.27
2018-04-17T17:33:02.648Z,8.23
2018-04-17T17:35:31.368Z,8.63
2018-04-17T17:37:58.895Z,7.70
2018-04-17T17:40:27.872Z,8.50
2018-04-17T17:42:56.359Z,8.07
2018-04-17T17:45:24.681Z,7.62
2018-04-17T17:47:52.227Z,10.18
2018-04-17T17:50:19.765Z,9.38
2018-04-17T17:52:48.071Z,8.60
2018-04-17T17:55:15.574Z,9.95
2018-04-17T17:57:43.146Z,11.10
2018-04-17T18:00:10.676Z,11.05
2018-04-17T18:02:38.234Z,11.85
2018-04-17T18:05:05.779Z,8.93
2018-04-17T18:07:33.288Z,9.15
2018-04-17T18:10:00.838Z,10.60
2018-04-17T18:12:28.361Z,8.50
2018-04-17T18:14:55.932Z,8.15
2018-04-17T18:17:23.466Z,8.55
2018-04-17T18:19:51.007Z,9.57
2018-04-17T18:22:19.334Z,10.13
2018-04-17T18:24:46.898Z,14.32
2018-04-17T18:27:15.027Z,12.00
2018-04-17T18:29:42.577Z,10.73
2018-04-17T18:32:10.904Z,10.15
2018-04-17T18:34:38.595Z,12.00
2018-04-17T18:37:06.835Z,12.85
2018-04-17T18:39:34.409Z,11.98
2018-04-17T18:42:02.257Z,10.52
2018-04-17T18:44:30.519Z,10.60
2018-04-17T18:46:58.084Z,9.55
2018-04-17T18:49:25.607Z,10.07
2018-04-17T18:51:53.912Z,10.00
2018-04-17T18:54:21.446Z,9.95
2018-04-17T18:56:49.791Z,11.38
2018-04-17T18:59:17.357Z,9.80
2018-04-17T19:01:45.047Z,11.93
2018-04-17T19:04:13.373Z,9.45
2018-04-17T19:06:40.921Z,11.12
2018-04-17T19:09:09.539Z,10.07
2018-04-17T19:11:37.060Z,12.30
2018-04-17T19:14:04.583Z,10.05
2018-04-17T19:16:32.889Z,10.98
2018-04-17T19:19:00.433Z,9.48
2018-04-17T19:31:16.823Z,11.60
2018-04-17T19:33:44.611Z,10.20
2018-04-17T19:36:16.249Z,12.45
2018-04-17T19:38:44.204Z,8.57
2018-04-17T19:41:11.780Z,11.90
2018-04-17T19:43:39.344Z,10.25
2018-04-17T19:46:06.946Z,11.05
2018-04-17T19:48:34.484Z,11.88
2018-04-17T19:51:02.024Z,10.18
2018-04-17T19:53:29.807Z,10.18
2018-04-17T19:55:57.334Z,11.20
2018-04-17T19:58:25.156Z,16.42
2018-04-17T20:00:52.687Z,12.63
2018-04-17T20:03:20.291Z,10.52
2018-04-17T20:05:49.526Z,10.20
2018-04-17T20:08:18.021Z,12.73
2018-04-17T20:10:45.573Z,14.65
2018-04-17T20:13:13.133Z,13.45
2018-04-17T20:15:40.687Z,12.32
2018-04-17T20:18:08.232Z,11.70
2018-04-17T20:20:36.500Z,11.40
2018-04-17T20:23:04.034Z,14.30
2018-04-17T20:25:32.259Z,13.73
2018-04-17T20:27:59.788Z,11.82
2018-04-17T20:30:28.145Z,13.85
2018-04-17T20:32:55.863Z,12.60
2018-04-17T20:35:23.434Z,19.58
2018-04-17T20:37:51.135Z,16.00
2018-04-17T20:40:18.682Z,15.00
2018-04-17T20:42:46.266Z,10.68
2018-04-17T20:45:15.092Z,13.73
2018-04-17T20:47:42.662Z,20.00
2018-04-17T20:50:10.234Z,12.32
2018-04-17T20:52:37.906Z,15.07
2018-04-17T20:55:06.211Z,13.73
2018-04-17T20:57:34.263Z,12.27
2018-04-17T21:00:01.813Z,12.80
2018-04-17T21:02:30.217Z,12.15
2018-04-17T21:04:57.761Z,17.05
2018-04-17T21:07:25.323Z,12.15
2018-04-17T21:09:52.848Z,16.60
2018-04-17T21:12:20.532Z,10.43
2018-04-17T21:14:48.065Z,15.00
2018-04-17T21:17:15.609Z,13.18
2018-04-17T21:19:43.164Z,13.40
2018-04-17T21:22:11.774Z,15.00
2018-04-17T21:24:39.316Z,11.48
2018-04-17T21:27:06.843Z,13.93
2018-04-17T21:29:34.398Z,15.45
2018-04-17T21:32:01.952Z,14.98
2018-04-17T21:34:29.489Z,15.30
2018-04-17T21:36:57.042Z,17.95
2018-04-17T21:39:24.615Z,21.00
2018-04-17T21:41:52.220Z,12.32
2018-04-17T21:44:21.052Z,13.85
2018-04-17T21:46:49.026Z,13.68
2018-04-17T21:49:16.544Z,11.25
2018-04-17T21:51:45.425Z,13.75
2018-04-17T21:54:13.721Z,14.77
2018-04-17T21:56:41.276Z,13.65
2018-04-17T21:59:09.573Z,13.43
2018-04-17T22:01:37.771Z,13.13
2018-04-17T22:04:05.316Z,17.25
2018-04-17T22:06:32.948Z,15.57
2018-04-17T22:09:01.257Z,15.40
2018-04-17T22:11:28.786Z,16.25
2018-04-17T22:13:57.563Z,14.18
2018-04-17T22:16:25.858Z,13.90
2018-04-17T22:18:54.237Z,12.37
2018-04-17T22:21:21.778Z,13.82
2018-04-17T22:23:50.072Z,13.52
2018-04-17T22:26:18.416Z,14.10
2018-04-17T22:28:45.964Z,13.27
2018-04-17T22:31:13.492Z,15.40
2018-04-17T22:33:41.008Z,15.82
2018-04-17T22:36:09.433Z,13.52
2018-04-17T22:38:37.468Z,15.80
2018-04-17T22:41:05.751Z,13.52
2018-04-17T22:43:34.047Z,14.32
2018-04-17T22:46:01.660Z,13.70
2018-04-17T22:48:29.206Z,15.93
2018-04-17T22:50:56.723Z,14.43
2018-04-17T22:53:24.250Z,14.52
2018-04-17T22:55:52.589Z,13.90
2018-04-17T22:58:20.144Z,13.20
2018-04-17T23:00:47.677Z,13.90
2018-04-17T23:03:15.211Z,13.35
2018-04-17T23:05:42.730Z,16.50
2018-04-17T23:08:10.265Z,14.27
2018-04-17T23:10:37.809Z,19.73
2018-04-17T23:13:05.354Z,14.70
2018-04-17T23:15:33.649Z,14.63
2018-04-17T23:18:01.182Z,13.48
2018-04-17T23:20:28.732Z,16.02
2018-04-17T23:22:56.244Z,14.38
2018-04-17T23:25:23.786Z,14.35
2018-04-17T23:27:51.315Z,13.80
2018-04-17T23:30:18.831Z,15.48
2018-04-17T23:32:46.412Z,15.73
2018-04-17T23:35:14.002Z,17.37
2018-04-17T23:37:41.548Z,16.70
2018-04-17T23:40:09.629Z,18.80
2018-04-17T23:42:37.179Z,13.62
2018-04-17T23:45:04.708Z,13.48
2018-04-17T23:47:32.227Z,16.47
2018-04-17T23:50:00.530Z,13.32
2018-04-17T23:52:28.148Z,13.10
2018-04-17T23:54:56.607Z,14.65
2018-04-17T23:57:24.224Z,17.10
2018-04-17T23:59:51.853Z,15.67
